createdAt,value
2019-05-30T00:03:22.076Z,6.66
2019-05-30T00:07:25.933Z,6.91
2019-05-30T00:11:29.497Z,7.05
2019-05-30T00:15:32.984Z,7.11
2019-05-30T00:19:36.463Z,7.20
2019-05-30T00:23:39.945Z,7.36
2019-05-30T00:27:43.416Z,7.43
2019-05-30T00:31:46.902Z,7.65
2019-05-30T00:35:50.362Z,7.73
2019-05-30T00:39:53.837Z,7.65
2019-05-30T00:43:57.843Z,7.71
2019-05-30T00:48:02.278Z,7.91
2019-05-30T00:52:07.122Z,7.82
2019-05-30T00:56:11.030Z,7.79
2019-05-30T01:00:14.576Z,7.79
2019-05-30T01:04:18.156Z,7.85
2019-05-30T01:08:21.623Z,7.90
2019-05-30T01:12:25.098Z,7.96
2019-05-30T01:16:28.580Z,7.86
2019-05-30T01:20:32.054Z,7.70
2019-05-30T01:24:35.527Z,7.54
2019-05-30T01:28:39.110Z,7.19
2019-05-30T01:32:42.593Z,7.00
2019-05-30T01:36:46.086Z,6.98
2019-05-30T01:40:49.562Z,6.83
2019-05-30T01:44:54.526Z,6.99
2019-05-30T01:48:58.214Z,6.89
2019-05-30T01:53:02.640Z,6.77
2019-05-30T01:57:06.785Z,6.50
2019-05-30T02:01:22.600Z,6.43
2019-05-30T02:05:16.011Z,6.46
2019-05-30T02:09:19.658Z,6.33
2019-05-30T02:13:23.141Z,6.48
2019-05-30T02:22:30.508Z,6.83
2019-05-30T02:26:33.979Z,6.97
2019-05-30T02:30:37.465Z,7.02
2019-05-30T02:34:40.933Z,6.96
2019-05-30T02:38:44.430Z,7.11
2019-05-30T02:42:47.917Z,7.04
2019-05-30T02:46:53.032Z,7.05
2019-05-30T02:50:56.947Z,7.09
2019-05-30T02:55:01.753Z,7.08
2019-05-30T02:59:06.072Z,7.18
2019-05-30T03:03:13.679Z,7.23
2019-05-30T03:07:16.131Z,7.26
2019-05-30T03:11:19.668Z,7.26
2019-05-30T03:15:23.591Z,7.06
2019-05-30T03:19:27.107Z,7.06
2019-05-30T03:23:31.184Z,6.96
2019-05-30T03:27:34.738Z,6.95
2019-05-30T03:31:39.540Z,7.01
2019-05-30T03:35:44.099Z,6.99
2019-05-30T03:39:48.039Z,7.00
2019-05-30T03:43:51.915Z,7.01
2019-05-30T03:47:58.447Z,7.20
2019-05-30T03:52:08.174Z,7.06
2019-05-30T03:56:16.584Z,7.38
2019-05-30T04:00:34.917Z,7.58
2019-05-30T04:04:41.447Z,7.70
2019-05-30T04:08:47.943Z,7.88
2019-05-30T04:13:14.555Z,8.13
2019-05-30T04:17:19.530Z,8.29
2019-05-30T04:21:23.225Z,8.41
2019-05-30T04:25:27.061Z,8.40
2019-05-30T04:29:30.657Z,8.86
2019-05-30T04:33:34.154Z,9.02
2019-05-30T04:37:37.618Z,9.19
2019-05-30T04:41:41.135Z,9.38
2019-05-30T04:45:44.656Z,9.56
2019-05-30T04:49:48.199Z,9.58
2019-05-30T04:53:52.043Z,9.67
2019-05-30T04:57:55.948Z,9.80
2019-05-30T05:01:59.789Z,9.96
2019-05-30T05:06:03.342Z,10.13
2019-05-30T05:10:08.849Z,10.22
2019-05-30T05:14:12.419Z,10.48
2019-05-30T05:18:16.967Z,11.10
2019-05-30T05:22:21.141Z,11.67
2019-05-30T05:26:24.718Z,12.11
2019-05-30T05:30:28.274Z,12.18
2019-05-30T05:34:31.766Z,12.43
2019-05-30T05:38:37.953Z,12.72
2019-05-30T05:42:41.754Z,13.09
2019-05-30T05:46:45.242Z,13.29
2019-05-30T05:50:48.747Z,13.56
2019-05-30T05:54:55.096Z,13.80
2019-05-30T05:58:57.949Z,13.96
2019-05-30T06:03:01.692Z,14.40
2019-05-30T06:07:05.323Z,14.44
2019-05-30T06:11:08.975Z,14.46
2019-05-30T06:15:12.746Z,14.75
2019-05-30T06:19:17.256Z,14.65
2019-05-30T06:23:21.597Z,14.73
2019-05-30T06:27:26.143Z,14.65
2019-05-30T06:31:29.781Z,15.01
2019-05-30T06:35:33.281Z,15.02
2019-05-30T06:39:37.109Z,14.86
2019-05-30T06:43:40.973Z,15.33
2019-05-30T06:47:44.804Z,15.04
2019-05-30T06:51:48.296Z,15.20
2019-05-30T06:55:51.833Z,15.38
2019-05-30T06:59:55.329Z,15.49
2019-05-30T07:03:59.622Z,15.85
2019-05-30T07:08:03.240Z,16.06
2019-05-30T07:12:07.029Z,16.31
2019-05-30T07:16:10.530Z,16.47
2019-05-30T07:20:14.852Z,16.77
2019-05-30T07:24:18.352Z,17.26
2019-05-30T07:28:21.837Z,17.24
2019-05-30T07:32:25.836Z,16.67
2019-05-30T07:36:30.338Z,17.26
2019-05-30T07:40:34.826Z,17.65
2019-05-30T07:44:38.325Z,18.00
2019-05-30T07:48:42.220Z,18.27
2019-05-30T07:52:45.720Z,18.22
2019-05-30T07:56:51.672Z,20.04
2019-05-30T08:00:55.299Z,22.43
2019-05-30T08:04:58.791Z,21.03
2019-05-30T08:09:02.384Z,20.45
2019-05-30T08:13:05.875Z,20.00
2019-05-30T08:17:09.365Z,20.15
2019-05-30T08:21:12.886Z,20.22
2019-05-30T08:25:16.538Z,19.74
2019-05-30T08:29:20.039Z,20.33
2019-05-30T08:33:23.526Z,21.16
2019-05-30T08:37:27.328Z,20.31
2019-05-30T08:41:31.181Z,20.38
2019-05-30T08:45:35.934Z,20.97
2019-05-30T08:49:40.383Z,20.19
2019-05-30T08:53:43.956Z,20.34
2019-05-30T08:57:47.743Z,20.56
2019-05-30T09:01:53.295Z,22.22
2019-05-30T09:06:05.914Z,22.52
2019-05-30T09:10:10.546Z,22.28
2019-05-30T09:14:14.074Z,21.74
2019-05-30T09:18:19.352Z,20.73
2019-05-30T09:22:23.425Z,20.34
2019-05-30T09:26:27.803Z,20.40
2019-05-30T09:30:33.359Z,20.72
2019-05-30T09:34:36.860Z,20.88
2019-05-30T09:38:41.798Z,20.97
2019-05-30T09:42:46.937Z,21.12
2019-05-30T09:46:51.445Z,20.74
2019-05-30T09:50:55.307Z,19.97
2019-05-30T09:55:00.211Z,19.49
2019-05-30T09:59:04.318Z,19.46
2019-05-30T10:03:09.327Z,19.41
2019-05-30T10:07:13.301Z,18.76
2019-05-30T10:11:17.098Z,18.69
2019-05-30T10:15:23.315Z,18.57
2019-05-30T10:19:28.235Z,18.63
2019-05-30T10:23:33.317Z,18.75
2019-05-30T10:27:37.340Z,18.82
2019-05-30T10:31:42.025Z,18.69
2019-05-30T10:35:51.297Z,18.73
2019-05-30T10:39:57.862Z,19.12
2019-05-30T10:44:00.604Z,19.44
2019-05-30T10:48:04.586Z,19.71
2019-05-30T10:52:09.721Z,19.84
2019-05-30T10:56:15.541Z,19.59
2019-05-30T11:00:22.130Z,19.38
2019-05-30T11:04:32.189Z,19.08
2019-05-30T11:08:39.988Z,18.76
2019-05-30T11:12:43.522Z,18.73
2019-05-30T11:16:48.896Z,18.79
2019-05-30T11:20:54.089Z,18.51
2019-05-30T11:24:59.354Z,18.33
2019-05-30T11:29:03.423Z,18.77
2019-05-30T11:33:06.915Z,18.75
2019-05-30T11:41:15.742Z,18.80
2019-05-30T11:45:19.577Z,18.58
2019-05-30T11:49:32.596Z,18.45
2019-05-30T11:53:36.113Z,18.43
2019-05-30T11:57:39.672Z,18.34
2019-05-30T12:01:43.219Z,18.20
2019-05-30T12:05:47.019Z,18.35
2019-05-30T12:09:50.808Z,18.96
2019-05-30T12:13:55.161Z,18.89
2019-05-30T12:17:59.534Z,18.69
2019-05-30T12:22:03.467Z,18.98
2019-05-30T12:26:06.973Z,19.85
2019-05-30T12:30:12.575Z,19.92
2019-05-30T12:34:16.371Z,19.62
2019-05-30T12:38:21.065Z,19.74
2019-05-30T12:42:26.673Z,19.86
2019-05-30T12:46:30.611Z,20.29
2019-05-30T12:50:34.218Z,21.01
2019-05-30T12:54:38.066Z,20.58
2019-05-30T12:58:42.945Z,20.05
2019-05-30T13:02:46.500Z,20.07
2019-05-30T13:06:53.824Z,19.87
2019-05-30T13:10:55.662Z,19.50
2019-05-30T13:14:59.573Z,19.64
2019-05-30T13:19:04.667Z,20.05
2019-05-30T13:23:08.197Z,20.49
2019-05-30T13:27:12.626Z,20.74
2019-05-30T13:31:17.743Z,20.06
2019-05-30T13:35:21.766Z,20.16
2019-05-30T13:39:26.551Z,20.03
2019-05-30T13:43:34.678Z,20.20
2019-05-30T13:47:39.038Z,20.30
2019-05-30T13:51:52.855Z,20.40
2019-05-30T13:55:57.655Z,20.11
2019-05-30T14:00:03.855Z,20.21
2019-05-30T14:04:10.464Z,19.91
2019-05-30T14:08:16.763Z,19.74
2019-05-30T14:12:19.824Z,19.65
2019-05-30T14:16:24.754Z,19.84
2019-05-30T14:20:29.041Z,20.04
2019-05-30T14:24:34.094Z,19.88
2019-05-30T14:28:43.111Z,19.77
2019-05-30T14:32:59.626Z,20.03
2019-05-30T14:37:31.768Z,20.11
2019-05-30T14:41:38.333Z,20.44
2019-05-30T14:45:42.239Z,20.48
2019-05-30T14:49:45.738Z,20.24
2019-05-30T14:53:49.776Z,20.42
2019-05-30T14:57:53.425Z,20.56
2019-05-30T15:01:57.047Z,21.02
2019-05-30T15:06:01.047Z,21.30
2019-05-30T15:10:08.713Z,21.51
2019-05-30T15:14:12.917Z,21.18
2019-05-30T15:18:17.416Z,20.86
2019-05-30T15:22:21.015Z,21.00
2019-05-30T15:26:24.612Z,20.92
2019-05-30T15:30:28.164Z,20.77
2019-05-30T15:34:31.737Z,20.45
2019-05-30T15:38:35.725Z,20.39
2019-05-30T15:42:39.417Z,20.22
2019-05-30T15:46:43.131Z,20.08
2019-05-30T15:50:46.603Z,19.84
2019-05-30T15:54:50.228Z,19.67
2019-05-30T15:58:53.815Z,19.63
2019-05-30T16:02:57.681Z,19.46
2019-05-30T16:07:01.491Z,19.31
2019-05-30T16:11:05.052Z,19.41
2019-05-30T16:15:09.874Z,19.48
2019-05-30T16:19:20.363Z,19.68
2019-05-30T16:23:20.456Z,19.86
2019-05-30T16:27:24.089Z,20.06
2019-05-30T16:31:27.680Z,20.09
2019-05-30T16:35:31.294Z,19.83
2019-05-30T16:39:34.828Z,19.67
2019-05-30T16:43:38.317Z,19.50
2019-05-30T16:47:41.818Z,19.22
2019-05-30T16:51:45.593Z,19.14
2019-05-30T16:55:49.084Z,19.03
2019-05-30T16:59:53.654Z,19.04
2019-05-30T17:03:57.300Z,18.90
2019-05-30T17:08:00.916Z,18.73
2019-05-30T17:12:05.475Z,18.72
2019-05-30T17:16:08.964Z,18.77
2019-05-30T17:20:13.404Z,18.73
2019-05-30T17:24:17.035Z,18.77
2019-05-30T17:28:20.476Z,18.80
2019-05-30T17:32:24.262Z,18.92
2019-05-30T17:36:28.416Z,18.92
2019-05-30T17:40:44.335Z,19.08
2019-05-30T17:44:40.729Z,18.81
2019-05-30T17:48:44.323Z,18.58
2019-05-30T17:52:48.272Z,18.51
2019-05-30T17:56:51.752Z,18.48
2019-05-30T18:00:57.243Z,18.36
2019-05-30T18:05:00.779Z,18.20
2019-05-30T18:09:07.422Z,18.31
2019-05-30T18:13:10.929Z,18.23
2019-05-30T18:17:14.419Z,18.26
2019-05-30T18:21:17.939Z,18.19
2019-05-30T18:25:23.502Z,18.27
2019-05-30T18:29:28.110Z,18.34
2019-05-30T18:33:32.574Z,18.23
2019-05-30T18:37:37.418Z,18.14
2019-05-30T18:41:40.910Z,18.05
2019-05-30T18:45:46.146Z,17.96
2019-05-30T18:49:49.699Z,17.81
2019-05-30T18:53:53.197Z,17.83
2019-05-30T18:57:57.147Z,17.74
2019-05-30T19:02:00.683Z,17.68
2019-05-30T19:06:04.667Z,17.62
2019-05-30T19:10:09.025Z,17.59
2019-05-30T19:14:12.530Z,17.47
2019-05-30T19:18:16.183Z,17.35
2019-05-30T19:22:20.665Z,17.33
2019-05-30T19:26:24.502Z,17.04
2019-05-30T19:30:28.675Z,16.99
2019-05-30T19:34:35.191Z,17.00
2019-05-30T19:38:39.035Z,16.99
2019-05-30T19:42:42.831Z,17.07
2019-05-30T19:46:46.338Z,16.92
2019-05-30T19:50:50.164Z,16.81
2019-05-30T19:54:53.741Z,16.80
2019-05-30T19:58:57.295Z,16.68
2019-05-30T20:03:00.864Z,16.61
2019-05-30T20:07:04.740Z,16.63
2019-05-30T20:11:08.515Z,16.48
2019-05-30T20:15:13.263Z,16.38
2019-05-30T20:19:16.797Z,16.33
2019-05-30T20:23:20.637Z,16.23
2019-05-30T20:27:24.425Z,16.21
2019-05-30T20:31:28.017Z,16.31
2019-05-30T20:35:34.310Z,16.40
2019-05-30T20:39:37.117Z,16.43
2019-05-30T20:43:41.051Z,16.56
2019-05-30T20:47:44.614Z,16.50
2019-05-30T20:51:48.407Z,16.65
2019-05-30T20:55:52.196Z,16.74
2019-05-30T20:59:55.987Z,16.71
2019-05-30T21:03:59.504Z,16.66
2019-05-30T21:08:06.044Z,16.59
2019-05-30T21:12:09.346Z,16.66
2019-05-30T21:16:15.806Z,16.73
2019-05-30T21:20:19.319Z,16.66
2019-05-30T21:24:23.068Z,16.71
2019-05-30T21:28:26.567Z,16.74
2019-05-30T21:32:30.444Z,16.71
2019-05-30T21:36:33.980Z,16.70
2019-05-30T21:40:38.189Z,16.72
2019-05-30T21:44:42.707Z,16.67
2019-05-30T21:48:46.965Z,16.67
2019-05-30T21:52:50.458Z,16.70
2019-05-30T21:56:54.230Z,16.71
2019-05-30T22:01:18.862Z,16.76
2019-05-30T22:05:23.038Z,16.68
2019-05-30T22:09:26.527Z,16.69
2019-05-30T22:13:30.030Z,16.74
2019-05-30T22:17:33.544Z,16.69
2019-05-30T22:21:37.048Z,16.73
2019-05-30T22:25:40.637Z,16.61
2019-05-30T22:29:44.369Z,16.58
2019-05-30T22:33:48.763Z,16.55
2019-05-30T22:37:53.120Z,16.63
2019-05-30T22:41:56.997Z,16.57
2019-05-30T22:46:00.592Z,16.65
2019-05-30T22:50:05.517Z,16.66
2019-05-30T22:54:09.066Z,16.65
2019-05-30T22:58:12.644Z,16.66
2019-05-30T23:02:16.500Z,16.55
2019-05-30T23:06:20.336Z,16.58
2019-05-30T23:10:24.148Z,16.53
2019-05-30T23:14:27.624Z,16.53
2019-05-30T23:18:31.225Z,16.53
2019-05-30T23:22:35.098Z,16.49
2019-05-30T23:26:38.637Z,16.57
2019-05-30T23:30:42.205Z,16.56
2019-05-30T23:34:46.035Z,16.66
2019-05-30T23:38:50.750Z,16.50
2019-05-30T23:42:55.123Z,16.50
2019-05-30T23:46:59.762Z,16.55
2019-05-30T23:51:03.266Z,16.46
2019-05-30T23:55:07.682Z,16.51
2019-05-30T23:59:11.463Z,16.41
